sensor_id;sensor_type;location;lat;lon;timestamp;P1;P2;P0
82817;PMS5003;72572;46.824;-71.222;2024-02-21T20:10:06;41.48;35.62;22.57
82817;PMS5003;72572;46.824;-71.222;2024-02-21T20:10:20;51.1;40.86;24.24
82817;PMS5003;72572;46.824;-71.222;2024-02-21T20:11:59;22.6;17.65;10.35
82817;PMS5003;72572;46.824;-71.222;2024-02-21T20:14:25;22.25;19.1;12.65
82817;PMS5003;72572;46.824;-71.222;2024-02-21T20:16:51;18.33;17.1;10.38
82817;PMS5003;72572;46.824;-71.222;2024-02-21T20:19:17;20.3;18.95;12.3
82817;PMS5003;72572;46.824;-71.222;2024-02-21T20:21:41;18.15;15.55;9.75
82817;PMS5003;72572;46.824;-71.222;2024-02-21T20:24:07;17.77;15.86;9.27
82817;PMS5003;72572;46.824;-71.222;2024-02-21T20:26:31;18.19;17.62;9.38
82817;PMS5003;72572;46.824;-71.222;2024-02-21T20:28:58;16.81;16.81;11.38
82817;PMS5003;72572;46.824;-71.222;2024-02-21T20:31:24;23.95;18.19;11.1
82817;PMS5003;72572;46.824;-71.222;2024-02-21T20:33:47;28.9;25.75;16.2
82817;PMS5003;72572;46.824;-71.222;2024-02-21T20:36:12;21.05;19.67;12.81
82817;PMS5003;72572;46.824;-71.222;2024-02-21T20:38:39;22.62;21.48;10.38
82817;PMS5003;72572;46.824;-71.222;2024-02-21T20:41:05;19.86;15.36;10.23
82817;PMS5003;72572;46.824;-71.222;2024-02-21T20:43:31;26.2;18.9;11.15
82817;PMS5003;72572;46.824;-71.222;2024-02-21T20:45:53;30.2;24.5;15.25
82817;PMS5003;72572;46.824;-71.222;2024-02-21T20:48:20;23.62;19.57;13.1
82817;PMS5003;72572;46.824;-71.222;2024-02-21T20:50:46;28.33;22.38;13.67
82817;PMS5003;72572;46.824;-71.222;2024-02-21T20:53:12;18.9;17.67;10.71
82817;PMS5003;72572;46.824;-71.222;2024-02-21T20:55:34;18.95;17.24;11.43
82817;PMS5003;72572;46.824;-71.222;2024-02-21T20:58:02;24.24;20.48;13.76
82817;PMS5003;72572;46.824;-71.222;2024-02-21T21:00:28;22.19;18.1;10.05
82817;PMS5003;72572;46.824;-71.222;2024-02-21T21:02:51;14.62;10.95;7.1
82817;PMS5003;72572;46.824;-71.222;2024-02-21T21:05:18;22.95;19.24;11.14
82817;PMS5003;72572;46.824;-71.222;2024-02-21T21:07:41;17.43;15.9;10.29
82817;PMS5003;72572;46.824;-71.222;2024-02-21T21:10:10;23.1;19.05;10.1
82817;PMS5003;72572;46.824;-71.222;2024-02-21T21:12:34;23.1;18.95;9.95
82817;PMS5003;72572;46.824;-71.222;2024-02-21T21:14:59;22.05;18.05;11.43
82817;PMS5003;72572;46.824;-71.222;2024-02-21T21:17:25;23.9;20.55;13.75
82817;PMS5003;72572;46.824;-71.222;2024-02-21T21:19:50;21.75;18.8;12.8
82817;PMS5003;72572;46.824;-71.222;2024-02-21T21:22:14;27.2;23.6;16
82817;PMS5003;72572;46.824;-71.222;2024-02-21T21:24:40;29;26.05;19.2
82817;PMS5003;72572;46.824;-71.222;2024-02-21T21:27:05;27.57;25.24;15.14
82817;PMS5003;72572;46.824;-71.222;2024-02-21T21:29:32;24.45;22.85;15.6
82817;PMS5003;72572;46.824;-71.222;2024-02-21T21:31:57;34;26.64;17.64
82817;PMS5003;72572;46.824;-71.222;2024-02-21T21:34:20;26;22.8;14.2
82817;PMS5003;72572;46.824;-71.222;2024-02-21T21:36:46;26.55;25.65;16.9
82817;PMS5003;72572;46.824;-71.222;2024-02-21T21:39:13;27.48;24.62;16.24
82817;PMS5003;72572;46.824;-71.222;2024-02-21T21:41:38;27.89;25.63;14.95
82817;PMS5003;72572;46.824;-71.222;2024-02-21T21:44:01;33;24.1;15.19
82817;PMS5003;72572;46.824;-71.222;2024-02-21T21:46:29;25.74;23.11;13.63
82817;PMS5003;72572;46.824;-71.222;2024-02-21T21:48:53;27.82;22;14.68
82817;PMS5003;72572;46.824;-71.222;2024-02-21T21:51:19;25.52;23.57;14.38
82817;PMS5003;72572;46.824;-71.222;2024-02-21T21:53:43;22.8;19.7;12.25
82817;PMS5003;72572;46.824;-71.222;2024-02-21T21:56:09;24.05;20.37;12.26
82817;PMS5003;72572;46.824;-71.222;2024-02-21T21:58:35;25.6;21;13.6
82817;PMS5003;72572;46.824;-71.222;2024-02-21T22:00:59;31.45;30.65;21.95
82817;PMS5003;72572;46.824;-71.222;2024-02-21T22:03:26;62.86;52.86;38.52
82817;PMS5003;72572;46.824;-71.222;2024-02-21T22:05:50;61.62;49.48;35.81
82817;PMS5003;72572;46.824;-71.222;2024-02-21T22:08:16;49.53;43.32;30.53
82817;PMS5003;72572;46.824;-71.222;2024-02-21T22:10:41;48.37;41.84;29.21
82817;PMS5003;72572;46.824;-71.222;2024-02-21T22:13:06;49.19;38.95;25.24
82817;PMS5003;72572;46.824;-71.222;2024-02-21T22:15:32;34.89;31.63;21.89
82817;PMS5003;72572;46.824;-71.222;2024-02-21T22:17:59;36.1;32.5;19.3
82817;PMS5003;72572;46.824;-71.222;2024-02-21T22:20:22;43.8;38.95;24.8
82817;PMS5003;72572;46.824;-71.222;2024-02-21T22:22:47;35.62;33;18.76
82817;PMS5003;72572;46.824;-71.222;2024-02-21T22:25:14;30.05;28.55;19.1
82817;PMS5003;72572;46.824;-71.222;2024-02-21T22:27:39;28.21;24.05;15.74
82817;PMS5003;72572;46.824;-71.222;2024-02-21T22:30:05;35.76;23.38;13
82817;PMS5003;72572;46.824;-71.222;2024-02-21T22:32:29;22;20;11.35
82817;PMS5003;72572;46.824;-71.222;2024-02-21T22:34:55;23.25;20.05;13.65
82817;PMS5003;72572;46.824;-71.222;2024-02-21T22:37:19;27.55;25.75;17.4
82817;PMS5003;72572;46.824;-71.222;2024-02-21T22:39:46;25.25;22.55;11
82817;PMS5003;72572;46.824;-71.222;2024-02-21T22:42:13;27.7;20.6;14.3
82817;PMS5003;72572;46.824;-71.222;2024-02-21T22:44:39;34.3;30.8;18.75
82817;PMS5003;72572;46.824;-71.222;2024-02-21T22:47:01;37;34.15;21.25
82817;PMS5003;72572;46.824;-71.222;2024-02-21T22:49:27;44.7;32.65;20.85
82817;PMS5003;72572;46.824;-71.222;2024-02-21T22:51:54;46.05;35.45;22.55
82817;PMS5003;72572;46.824;-71.222;2024-02-21T22:54:18;34.2;27.6;17.8
82817;PMS5003;72572;46.824;-71.222;2024-02-21T22:56:44;35;31.9;21.05
82817;PMS5003;72572;46.824;-71.222;2024-02-21T22:59:10;27.25;24.7;17.25
82817;PMS5003;72572;46.824;-71.222;2024-02-21T23:01:35;36.42;30.21;18.21
82817;PMS5003;72572;46.824;-71.222;2024-02-21T23:04:01;31.05;26.95;18.1
82817;PMS5003;72572;46.824;-71.222;2024-02-21T23:06:23;28.35;27.55;19.5
82817;PMS5003;72572;46.824;-71.222;2024-02-21T23:08:50;41.95;38.55;24.1
82817;PMS5003;72572;46.824;-71.222;2024-02-21T23:11:14;77.7;57.5;36.1
82817;PMS5003;72572;46.824;-71.222;2024-02-21T23:13:41;60.48;49.05;31.19
82817;PMS5003;72572;46.824;-71.222;2024-02-21T23:16:07;53.2;41.9;26.95
82817;PMS5003;72572;46.824;-71.222;2024-02-21T23:18:30;46.95;36.1;22.45
82817;PMS5003;72572;46.824;-71.222;2024-02-21T23:20:58;36.6;29.8;17.95
82817;PMS5003;72572;46.824;-71.222;2024-02-21T23:23:21;37.85;36.3;24
82817;PMS5003;72572;46.824;-71.222;2024-02-21T23:25:48;36.85;30.1;16.75
82817;PMS5003;72572;46.824;-71.222;2024-02-21T23:28:13;27.05;23.9;15.35
82817;PMS5003;72572;46.824;-71.222;2024-02-21T23:30:38;35.58;31.47;17.16
82817;PMS5003;72572;46.824;-71.222;2024-02-21T23:33:04;38.15;31.4;19.1
82817;PMS5003;72572;46.824;-71.222;2024-02-21T23:35:27;35.47;31.05;19.58
82817;PMS5003;72572;46.824;-71.222;2024-02-21T23:37:53;36.15;28.05;17.35
82817;PMS5003;72572;46.824;-71.222;2024-02-21T23:40:19;26.6;23;13.25
82817;PMS5003;72572;46.824;-71.222;2024-02-21T23:42:45;23.55;21.1;13
82817;PMS5003;72572;46.824;-71.222;2024-02-21T23:45:10;21.35;20.8;14.7
82817;PMS5003;72572;46.824;-71.222;2024-02-21T23:47:35;31.86;28.9;19.38
82817;PMS5003;72572;46.824;-71.222;2024-02-21T23:50:02;50.84;40.74;24.16
82817;PMS5003;72572;46.824;-71.222;2024-02-21T23:52:26;66.05;49.1;29.29
82817;PMS5003;72572;46.824;-71.222;2024-02-21T23:54:52;96.55;74.4;46.5
82817;PMS5003;72572;46.824;-71.222;2024-02-21T23:57:16;79.16;61.53;38.26
82817;PMS5003;72572;46.824;-71.222;2024-02-21T23:59:43;36.85;33.35;23.45
